sensor_id;sensor_type;location;lat;lon;timestamp;pressure;altitude;pressure_sealevel;temperature
35582;BMP180;21687;48.900;9.188;2023-02-23T00:01:37;98106.00;;;7.40
35582;BMP180;21687;48.900;9.188;2023-02-23T00:04:04;98099.00;;;7.40
35582;BMP180;21687;48.900;9.188;2023-02-23T00:06:32;98113.00;;;7.50
35582;BMP180;21687;48.900;9.188;2023-02-23T00:09:00;98109.00;;;7.50
35582;BMP180;21687;48.900;9.188;2023-02-23T00:11:27;98106.00;;;7.50
35582;BMP180;21687;48.900;9.188;2023-02-23T00:13:54;98109.00;;;7.50
35582;BMP180;21687;48.900;9.188;2023-02-23T00:16:25;98104.00;;;7.60
35582;BMP180;21687;48.900;9.188;2023-02-23T00:18:53;98097.00;;;7.60
35582;BMP180;21687;48.900;9.188;2023-02-23T00:21:26;98089.00;;;7.60
35582;BMP180;21687;48.900;9.188;2023-02-23T00:23:57;98100.00;;;7.70
35582;BMP180;21687;48.900;9.188;2023-02-23T00:26:26;98101.00;;;7.60
35582;BMP180;21687;48.900;9.188;2023-02-23T00:28:56;98093.00;;;7.70
35582;BMP180;21687;48.900;9.188;2023-02-23T00:31:24;98092.00;;;7.80
35582;BMP180;21687;48.900;9.188;2023-02-23T00:33:56;98094.00;;;7.80
35582;BMP180;21687;48.900;9.188;2023-02-23T00:36:33;98094.00;;;7.80
35582;BMP180;21687;48.900;9.188;2023-02-23T00:39:02;98090.00;;;7.80
35582;BMP180;21687;48.900;9.188;2023-02-23T00:41:36;98094.00;;;7.80
35582;BMP180;21687;48.900;9.188;2023-02-23T00:44:02;98085.00;;;7.90
35582;BMP180;21687;48.900;9.188;2023-02-23T00:46:29;98098.00;;;7.90
35582;BMP180;21687;48.900;9.188;2023-02-23T00:48:57;98090.00;;;7.80
35582;BMP180;21687;48.900;9.188;2023-02-23T00:51:25;98092.00;;;7.80
35582;BMP180;21687;48.900;9.188;2023-02-23T00:53:56;98094.00;;;7.70
35582;BMP180;21687;48.900;9.188;2023-02-23T00:56:23;98086.00;;;7.70
35582;BMP180;21687;48.900;9.188;2023-02-23T00:58:49;98084.00;;;7.50
35582;BMP180;21687;48.900;9.188;2023-02-23T01:01:17;98080.00;;;7.40
35582;BMP180;21687;48.900;9.188;2023-02-23T01:03:44;98088.00;;;7.40
35582;BMP180;21687;48.900;9.188;2023-02-23T01:06:13;98086.00;;;7.40
35582;BMP180;21687;48.900;9.188;2023-02-23T01:08:42;98089.00;;;7.40
35582;BMP180;21687;48.900;9.188;2023-02-23T01:11:11;98087.00;;;7.30
35582;BMP180;21687;48.900;9.188;2023-02-23T01:13:39;98081.00;;;7.20
35582;BMP180;21687;48.900;9.188;2023-02-23T01:16:11;98087.00;;;7.20
35582;BMP180;21687;48.900;9.188;2023-02-23T01:18:40;98079.00;;;7.10
35582;BMP180;21687;48.900;9.188;2023-02-23T01:21:14;98085.00;;;7.10
35582;BMP180;21687;48.900;9.188;2023-02-23T01:23:41;98086.00;;;7.10
35582;BMP180;21687;48.900;9.188;2023-02-23T01:26:15;98077.00;;;7.10
35582;BMP180;21687;48.900;9.188;2023-02-23T01:28:42;98082.00;;;7.00
35582;BMP180;21687;48.900;9.188;2023-02-23T01:31:08;98084.00;;;7.00
35582;BMP180;21687;48.900;9.188;2023-02-23T01:33:35;98084.00;;;7.00
35582;BMP180;21687;48.900;9.188;2023-02-23T01:36:01;98079.00;;;7.00
35582;BMP180;21687;48.900;9.188;2023-02-23T01:38:27;98079.00;;;7.00
35582;BMP180;21687;48.900;9.188;2023-02-23T01:40:53;98084.00;;;7.00
35582;BMP180;21687;48.900;9.188;2023-02-23T01:43:22;98078.00;;;7.00
35582;BMP180;21687;48.900;9.188;2023-02-23T01:45:55;98082.00;;;6.90
35582;BMP180;21687;48.900;9.188;2023-02-23T01:48:39;98078.00;;;6.80
35582;BMP180;21687;48.900;9.188;2023-02-23T01:51:09;98079.00;;;6.80
35582;BMP180;21687;48.900;9.188;2023-02-23T01:53:40;98066.00;;;6.90
35582;BMP180;21687;48.900;9.188;2023-02-23T01:56:10;98068.00;;;6.90
35582;BMP180;21687;48.900;9.188;2023-02-23T01:58:42;98081.00;;;7.00
35582;BMP180;21687;48.900;9.188;2023-02-23T02:01:09;98070.00;;;6.90
35582;BMP180;21687;48.900;9.188;2023-02-23T02:03:38;98071.00;;;6.90
35582;BMP180;21687;48.900;9.188;2023-02-23T02:06:07;98064.00;;;6.90
35582;BMP180;21687;48.900;9.188;2023-02-23T02:08:36;98068.00;;;7.00
35582;BMP180;21687;48.900;9.188;2023-02-23T02:11:15;98068.00;;;7.00
35582;BMP180;21687;48.900;9.188;2023-02-23T02:14:00;98063.00;;;7.00
35582;BMP180;21687;48.900;9.188;2023-02-23T02:25:55;98052.00;;;6.90
35582;BMP180;21687;48.900;9.188;2023-02-23T02:28:43;98047.00;;;6.90
35582;BMP180;21687;48.900;9.188;2023-02-23T02:31:25;98041.00;;;6.90
35582;BMP180;21687;48.900;9.188;2023-02-23T02:34:41;98047.00;;;7.00
35582;BMP180;21687;48.900;9.188;2023-02-23T02:37:44;98050.00;;;6.80
35582;BMP180;21687;48.900;9.188;2023-02-23T02:40:32;98050.00;;;6.90
35582;BMP180;21687;48.900;9.188;2023-02-23T02:43:19;98051.00;;;6.80
35582;BMP180;21687;48.900;9.188;2023-02-23T02:46:10;98040.00;;;6.70
35582;BMP180;21687;48.900;9.188;2023-02-23T02:54:30;98050.00;;;6.70
35582;BMP180;21687;48.900;9.188;2023-02-23T02:57:00;98049.00;;;6.80
35582;BMP180;21687;48.900;9.188;2023-02-23T02:59:27;98048.00;;;6.80
35582;BMP180;21687;48.900;9.188;2023-02-23T03:02:21;98039.00;;;6.80
35582;BMP180;21687;48.900;9.188;2023-02-23T03:05:14;98041.00;;;6.80
35582;BMP180;21687;48.900;9.188;2023-02-23T03:08:08;98032.00;;;6.70
35582;BMP180;21687;48.900;9.188;2023-02-23T03:11:05;98033.00;;;6.70
35582;BMP180;21687;48.900;9.188;2023-02-23T03:17:07;98032.00;;;6.60
35582;BMP180;21687;48.900;9.188;2023-02-23T03:20:27;98026.00;;;6.50
35582;BMP180;21687;48.900;9.188;2023-02-23T03:23:24;98038.00;;;6.50
35582;BMP180;21687;48.900;9.188;2023-02-23T03:26:36;98021.00;;;6.40
35582;BMP180;21687;48.900;9.188;2023-02-23T03:30:15;98043.00;;;6.30
35582;BMP180;21687;48.900;9.188;2023-02-23T03:33:00;98046.00;;;6.40
35582;BMP180;21687;48.900;9.188;2023-02-23T03:36:03;98047.00;;;6.40
35582;BMP180;21687;48.900;9.188;2023-02-23T03:38:57;98042.00;;;6.40
35582;BMP180;21687;48.900;9.188;2023-02-23T03:41:45;98038.00;;;6.50
35582;BMP180;21687;48.900;9.188;2023-02-23T03:44:35;98043.00;;;6.50
35582;BMP180;21687;48.900;9.188;2023-02-23T03:47:23;98039.00;;;6.60
35582;BMP180;21687;48.900;9.188;2023-02-23T03:50:30;98040.00;;;6.60
35582;BMP180;21687;48.900;9.188;2023-02-23T03:53:20;98044.00;;;6.70
35582;BMP180;21687;48.900;9.188;2023-02-23T03:56:08;98040.00;;;6.70
35582;BMP180;21687;48.900;9.188;2023-02-23T03:58:58;98047.00;;;6.70
35582;BMP180;21687;48.900;9.188;2023-02-23T04:01:45;98039.00;;;6.80
35582;BMP180;21687;48.900;9.188;2023-02-23T04:04:30;98039.00;;;6.80
35582;BMP180;21687;48.900;9.188;2023-02-23T04:07:18;98037.00;;;6.90
35582;BMP180;21687;48.900;9.188;2023-02-23T04:10:07;98032.00;;;6.90
35582;BMP180;21687;48.900;9.188;2023-02-23T04:15:58;98046.00;;;6.90
35582;BMP180;21687;48.900;9.188;2023-02-23T04:18:31;98048.00;;;6.90
35582;BMP180;21687;48.900;9.188;2023-02-23T04:20:58;98044.00;;;6.90
35582;BMP180;21687;48.900;9.188;2023-02-23T04:23:25;98046.00;;;6.90
35582;BMP180;21687;48.900;9.188;2023-02-23T04:25:52;98041.00;;;6.90
35582;BMP180;21687;48.900;9.188;2023-02-23T04:28:20;98043.00;;;6.90
35582;BMP180;21687;48.900;9.188;2023-02-23T04:30:47;98052.00;;;6.90
35582;BMP180;21687;48.900;9.188;2023-02-23T04:33:14;98046.00;;;6.90
35582;BMP180;21687;48.900;9.188;2023-02-23T04:35:40;98048.00;;;6.90
35582;BMP180;21687;48.900;9.188;2023-02-23T04:38:07;98042.00;;;6.90
35582;BMP180;21687;48.900;9.188;2023-02-23T04:40:34;98052.00;;;6.90
35582;BMP180;21687;48.900;9.188;2023-02-23T04:43:00;98050.00;;;6.80
35582;BMP180;21687;48.900;9.188;2023-02-23T04:45:28;98055.00;;;6.90
35582;BMP180;21687;48.900;9.188;2023-02-23T04:47:54;98044.00;;;6.80
35582;BMP180;21687;48.900;9.188;2023-02-23T04:50:21;98052.00;;;6.90
35582;BMP180;21687;48.900;9.188;2023-02-23T04:52:48;98050.00;;;6.90
35582;BMP180;21687;48.900;9.188;2023-02-23T04:55:17;98041.00;;;6.80
35582;BMP180;21687;48.900;9.188;2023-02-23T04:57:44;98051.00;;;6.80
35582;BMP180;21687;48.900;9.188;2023-02-23T05:00:11;98057.00;;;6.80
35582;BMP180;21687;48.900;9.188;2023-02-23T05:02:38;98049.00;;;6.80
35582;BMP180;21687;48.900;9.188;2023-02-23T05:05:04;98049.00;;;6.80
35582;BMP180;21687;48.900;9.188;2023-02-23T05:07:32;98049.00;;;6.80
35582;BMP180;21687;48.900;9.188;2023-02-23T05:09:58;98048.00;;;6.70
35582;BMP180;21687;48.900;9.188;2023-02-23T05:12:25;98042.00;;;6.70
35582;BMP180;21687;48.900;9.188;2023-02-23T05:14:51;98038.00;;;6.60
35582;BMP180;21687;48.900;9.188;2023-02-23T05:17:17;98044.00;;;6.70
35582;BMP180;21687;48.900;9.188;2023-02-23T05:19:44;98037.00;;;6.70
35582;BMP180;21687;48.900;9.188;2023-02-23T05:22:10;98035.00;;;6.70
35582;BMP180;21687;48.900;9.188;2023-02-23T05:24:40;98049.00;;;6.70
35582;BMP180;21687;48.900;9.188;2023-02-23T05:27:08;98051.00;;;6.70
35582;BMP180;21687;48.900;9.188;2023-02-23T05:29:35;98046.00;;;6.60
35582;BMP180;21687;48.900;9.188;2023-02-23T05:32:01;98042.00;;;6.70
35582;BMP180;21687;48.900;9.188;2023-02-23T05:34:28;98044.00;;;6.70
35582;BMP180;21687;48.900;9.188;2023-02-23T05:36:54;98047.00;;;6.70
35582;BMP180;21687;48.900;9.188;2023-02-23T05:39:21;98053.00;;;6.80
35582;BMP180;21687;48.900;9.188;2023-02-23T05:41:47;98057.00;;;6.90
35582;BMP180;21687;48.900;9.188;2023-02-23T05:44:13;98054.00;;;6.90
35582;BMP180;21687;48.900;9.188;2023-02-23T05:46:40;98062.00;;;7.00
35582;BMP180;21687;48.900;9.188;2023-02-23T05:49:06;98058.00;;;7.00
35582;BMP180;21687;48.900;9.188;2023-02-23T05:51:33;98061.00;;;7.00
35582;BMP180;21687;48.900;9.188;2023-02-23T05:54:00;98054.00;;;7.00
35582;BMP180;21687;48.900;9.188;2023-02-23T05:56:27;98063.00;;;7.00
35582;BMP180;21687;48.900;9.188;2023-02-23T05:58:55;98054.00;;;7.10
35582;BMP180;21687;48.900;9.188;2023-02-23T06:01:23;98056.00;;;7.10
35582;BMP180;21687;48.900;9.188;2023-02-23T06:03:50;98059.00;;;7.10
35582;BMP180;21687;48.900;9.188;2023-02-23T06:06:17;98058.00;;;7.10
35582;BMP180;21687;48.900;9.188;2023-02-23T06:08:44;98059.00;;;7.10
35582;BMP180;21687;48.900;9.188;2023-02-23T06:11:10;98063.00;;;7.00
35582;BMP180;21687;48.900;9.188;2023-02-23T06:13:37;98056.00;;;7.10
35582;BMP180;21687;48.900;9.188;2023-02-23T06:16:03;98054.00;;;7.10
35582;BMP180;21687;48.900;9.188;2023-02-23T06:18:30;98061.00;;;7.00
35582;BMP180;21687;48.900;9.188;2023-02-23T06:20:59;98069.00;;;7.00
35582;BMP180;21687;48.900;9.188;2023-02-23T06:23:27;98068.00;;;7.00
35582;BMP180;21687;48.900;9.188;2023-02-23T06:25:53;98065.00;;;7.00
35582;BMP180;21687;48.900;9.188;2023-02-23T06:28:19;98080.00;;;7.10
35582;BMP180;21687;48.900;9.188;2023-02-23T06:30:46;98068.00;;;7.10
35582;BMP180;21687;48.900;9.188;2023-02-23T06:33:13;98077.00;;;7.10
35582;BMP180;21687;48.900;9.188;2023-02-23T06:35:40;98071.00;;;7.10
35582;BMP180;21687;48.900;9.188;2023-02-23T06:38:06;98075.00;;;7.10
35582;BMP180;21687;48.900;9.188;2023-02-23T06:40:33;98081.00;;;7.10
35582;BMP180;21687;48.900;9.188;2023-02-23T06:42:59;98081.00;;;7.20
35582;BMP180;21687;48.900;9.188;2023-02-23T06:45:25;98075.00;;;7.20
35582;BMP180;21687;48.900;9.188;2023-02-23T06:47:51;98078.00;;;7.20
35582;BMP180;21687;48.900;9.188;2023-02-23T06:50:18;98081.00;;;7.20
35582;BMP180;21687;48.900;9.188;2023-02-23T06:52:45;98081.00;;;7.20
35582;BMP180;21687;48.900;9.188;2023-02-23T06:55:11;98087.00;;;7.20
35582;BMP180;21687;48.900;9.188;2023-02-23T06:57:38;98092.00;;;7.30
35582;BMP180;21687;48.900;9.188;2023-02-23T07:00:05;98086.00;;;7.40
35582;BMP180;21687;48.900;9.188;2023-02-23T07:02:31;98089.00;;;7.30
35582;BMP180;21687;48.900;9.188;2023-02-23T07:04:57;98097.00;;;7.30
35582;BMP180;21687;48.900;9.188;2023-02-23T07:07:24;98097.00;;;7.40
35582;BMP180;21687;48.900;9.188;2023-02-23T07:09:50;98099.00;;;7.40
35582;BMP180;21687;48.900;9.188;2023-02-23T07:12:17;98102.00;;;7.40
35582;BMP180;21687;48.900;9.188;2023-02-23T07:14:43;98102.00;;;7.30
35582;BMP180;21687;48.900;9.188;2023-02-23T07:17:09;98109.00;;;7.30
35582;BMP180;21687;48.900;9.188;2023-02-23T07:19:35;98102.00;;;7.30
35582;BMP180;21687;48.900;9.188;2023-02-23T07:22:02;98103.00;;;7.30
35582;BMP180;21687;48.900;9.188;2023-02-23T07:24:28;98108.00;;;7.30
35582;BMP180;21687;48.900;9.188;2023-02-23T07:26:54;98106.00;;;7.40
35582;BMP180;21687;48.900;9.188;2023-02-23T07:29:22;98110.00;;;7.50
35582;BMP180;21687;48.900;9.188;2023-02-23T07:31:53;98118.00;;;7.50
35582;BMP180;21687;48.900;9.188;2023-02-23T07:34:19;98115.00;;;7.50
35582;BMP180;21687;48.900;9.188;2023-02-23T07:36:46;98120.00;;;7.50
35582;BMP180;21687;48.900;9.188;2023-02-23T07:39:12;98116.00;;;7.70
35582;BMP180;21687;48.900;9.188;2023-02-23T07:41:38;98113.00;;;7.80
35582;BMP180;21687;48.900;9.188;2023-02-23T07:44:05;98120.00;;;7.80
35582;BMP180;21687;48.900;9.188;2023-02-23T07:46:31;98120.00;;;8.00
35582;BMP180;21687;48.900;9.188;2023-02-23T07:48:57;98123.00;;;8.10
35582;BMP180;21687;48.900;9.188;2023-02-23T07:51:24;98125.00;;;8.20
35582;BMP180;21687;48.900;9.188;2023-02-23T07:53:50;98121.00;;;8.30
35582;BMP180;21687;48.900;9.188;2023-02-23T07:56:16;98118.00;;;8.40
35582;BMP180;21687;48.900;9.188;2023-02-23T07:58:43;98128.00;;;8.40
35582;BMP180;21687;48.900;9.188;2023-02-23T08:01:11;98136.00;;;8.60
35582;BMP180;21687;48.900;9.188;2023-02-23T08:03:37;98122.00;;;8.70
35582;BMP180;21687;48.900;9.188;2023-02-23T08:06:04;98123.00;;;8.80
35582;BMP180;21687;48.900;9.188;2023-02-23T08:08:31;98130.00;;;8.90
35582;BMP180;21687;48.900;9.188;2023-02-23T08:11:00;98137.00;;;8.90
35582;BMP180;21687;48.900;9.188;2023-02-23T08:13:26;98136.00;;;8.90
35582;BMP180;21687;48.900;9.188;2023-02-23T08:15:53;98136.00;;;9.00
35582;BMP180;21687;48.900;9.188;2023-02-23T08:18:19;98139.00;;;9.00
35582;BMP180;21687;48.900;9.188;2023-02-23T08:20:45;98132.00;;;9.10
35582;BMP180;21687;48.900;9.188;2023-02-23T08:23:11;98137.00;;;9.10
35582;BMP180;21687;48.900;9.188;2023-02-23T08:25:38;98142.00;;;9.20
35582;BMP180;21687;48.900;9.188;2023-02-23T08:28:04;98137.00;;;9.20
35582;BMP180;21687;48.900;9.188;2023-02-23T08:30:32;98132.00;;;9.30
35582;BMP180;21687;48.900;9.188;2023-02-23T08:32:59;98136.00;;;9.30
35582;BMP180;21687;48.900;9.188;2023-02-23T08:35:27;98146.00;;;9.30
35582;BMP180;21687;48.900;9.188;2023-02-23T08:37:53;98141.00;;;9.30
35582;BMP180;21687;48.900;9.188;2023-02-23T08:40:19;98135.00;;;9.40
35582;BMP180;21687;48.900;9.188;2023-02-23T08:42:46;98133.00;;;9.50
35582;BMP180;21687;48.900;9.188;2023-02-23T08:45:14;98142.00;;;9.50
35582;BMP180;21687;48.900;9.188;2023-02-23T08:47:41;98132.00;;;9.50
35582;BMP180;21687;48.900;9.188;2023-02-23T08:50:07;98141.00;;;9.60
35582;BMP180;21687;48.900;9.188;2023-02-23T08:52:36;98141.00;;;9.70
35582;BMP180;21687;48.900;9.188;2023-02-23T08:55:03;98136.00;;;9.60
35582;BMP180;21687;48.900;9.188;2023-02-23T08:57:32;98143.00;;;9.60
35582;BMP180;21687;48.900;9.188;2023-02-23T08:59:59;98141.00;;;9.80
35582;BMP180;21687;48.900;9.188;2023-02-23T09:02:25;98144.00;;;9.70
35582;BMP180;21687;48.900;9.188;2023-02-23T09:04:53;98149.00;;;9.80
35582;BMP180;21687;48.900;9.188;2023-02-23T09:07:20;98152.00;;;9.80
35582;BMP180;21687;48.900;9.188;2023-02-23T09:09:57;98153.00;;;9.80
35582;BMP180;21687;48.900;9.188;2023-02-23T09:12:24;98146.00;;;10.10
35582;BMP180;21687;48.900;9.188;2023-02-23T09:14:50;98150.00;;;10.10
35582;BMP180;21687;48.900;9.188;2023-02-23T09:17:19;98156.00;;;10.40
35582;BMP180;21687;48.900;9.188;2023-02-23T09:19:45;98148.00;;;10.40
35582;BMP180;21687;48.900;9.188;2023-02-23T09:22:11;98158.00;;;10.20
35582;BMP180;21687;48.900;9.188;2023-02-23T09:24:38;98157.00;;;10.40
35582;BMP180;21687;48.900;9.188;2023-02-23T09:27:04;98157.00;;;10.70
35582;BMP180;21687;48.900;9.188;2023-02-23T09:29:32;98156.00;;;10.80
35582;BMP180;21687;48.900;9.188;2023-02-23T09:31:59;98148.00;;;11.00
35582;BMP180;21687;48.900;9.188;2023-02-23T09:34:25;98145.00;;;11.00
35582;BMP180;21687;48.900;9.188;2023-02-23T09:36:54;98143.00;;;11.30
35582;BMP180;21687;48.900;9.188;2023-02-23T09:39:20;98153.00;;;11.70
35582;BMP180;21687;48.900;9.188;2023-02-23T09:50:16;98150.00;;;12.10
35582;BMP180;21687;48.900;9.188;2023-02-23T09:52:48;98149.00;;;12.50
35582;BMP180;21687;48.900;9.188;2023-02-23T09:55:21;98146.00;;;12.60
35582;BMP180;21687;48.900;9.188;2023-02-23T09:58:24;98156.00;;;12.30
35582;BMP180;21687;48.900;9.188;2023-02-23T10:06:25;98147.00;;;12.50
35582;BMP180;21687;48.900;9.188;2023-02-23T10:09:43;98150.00;;;12.50
35582;BMP180;21687;48.900;9.188;2023-02-23T10:15:01;98151.00;;;12.40
35582;BMP180;21687;48.900;9.188;2023-02-23T10:17:48;98149.00;;;12.50
35582;BMP180;21687;48.900;9.188;2023-02-23T10:20:23;98146.00;;;12.60
35582;BMP180;21687;48.900;9.188;2023-02-23T10:22:54;98148.00;;;12.60
35582;BMP180;21687;48.900;9.188;2023-02-23T10:25:29;98148.00;;;12.90
35582;BMP180;21687;48.900;9.188;2023-02-23T10:27:58;98146.00;;;12.80
35582;BMP180;21687;48.900;9.188;2023-02-23T10:30:28;98149.00;;;12.70
35582;BMP180;21687;48.900;9.188;2023-02-23T10:33:24;98147.00;;;12.90
35582;BMP180;21687;48.900;9.188;2023-02-23T10:36:00;98157.00;;;13.10
35582;BMP180;21687;48.900;9.188;2023-02-23T10:42:14;98151.00;;;13.20
35582;BMP180;21687;48.900;9.188;2023-02-23T10:45:00;98152.00;;;13.70
35582;BMP180;21687;48.900;9.188;2023-02-23T10:47:37;98154.00;;;13.90
35582;BMP180;21687;48.900;9.188;2023-02-23T10:50:31;98159.00;;;14.10
35582;BMP180;21687;48.900;9.188;2023-02-23T10:53:24;98159.00;;;14.30
35582;BMP180;21687;48.900;9.188;2023-02-23T10:56:09;98161.00;;;14.30
35582;BMP180;21687;48.900;9.188;2023-02-23T10:59:14;98156.00;;;14.20
35582;BMP180;21687;48.900;9.188;2023-02-23T11:01:43;98163.00;;;14.20
35582;BMP180;21687;48.900;9.188;2023-02-23T11:04:26;98157.00;;;14.00
35582;BMP180;21687;48.900;9.188;2023-02-23T11:07:17;98151.00;;;13.60
35582;BMP180;21687;48.900;9.188;2023-02-23T11:10:34;98157.00;;;13.40
35582;BMP180;21687;48.900;9.188;2023-02-23T11:13:07;98150.00;;;13.70
35582;BMP180;21687;48.900;9.188;2023-02-23T11:16:06;98156.00;;;13.90
35582;BMP180;21687;48.900;9.188;2023-02-23T11:18:42;98158.00;;;13.90
35582;BMP180;21687;48.900;9.188;2023-02-23T11:21:21;98142.00;;;13.70
35582;BMP180;21687;48.900;9.188;2023-02-23T11:23:50;98147.00;;;13.80
35582;BMP180;21687;48.900;9.188;2023-02-23T11:26:39;98139.00;;;13.70
35582;BMP180;21687;48.900;9.188;2023-02-23T11:31:56;98139.00;;;13.70
35582;BMP180;21687;48.900;9.188;2023-02-23T11:34:35;98135.00;;;13.60
35582;BMP180;21687;48.900;9.188;2023-02-23T11:37:24;98137.00;;;13.60
35582;BMP180;21687;48.900;9.188;2023-02-23T11:39:59;98126.00;;;13.70
35582;BMP180;21687;48.900;9.188;2023-02-23T11:43:08;98127.00;;;13.50
35582;BMP180;21687;48.900;9.188;2023-02-23T11:45:47;98121.00;;;13.00
35582;BMP180;21687;48.900;9.188;2023-02-23T11:48:27;98120.00;;;12.90
35582;BMP180;21687;48.900;9.188;2023-02-23T11:50:54;98112.00;;;12.80
35582;BMP180;21687;48.900;9.188;2023-02-23T11:53:28;98119.00;;;13.10
35582;BMP180;21687;48.900;9.188;2023-02-23T11:55:59;98117.00;;;13.10
35582;BMP180;21687;48.900;9.188;2023-02-23T11:58:43;98122.00;;;12.90
35582;BMP180;21687;48.900;9.188;2023-02-23T12:01:16;98115.00;;;12.90
35582;BMP180;21687;48.900;9.188;2023-02-23T12:03:57;98114.00;;;12.80
35582;BMP180;21687;48.900;9.188;2023-02-23T12:06:40;98119.00;;;13.20
35582;BMP180;21687;48.900;9.188;2023-02-23T12:09:25;98109.00;;;13.10
35582;BMP180;21687;48.900;9.188;2023-02-23T12:12:06;98119.00;;;13.10
35582;BMP180;21687;48.900;9.188;2023-02-23T12:14:59;98114.00;;;13.10
35582;BMP180;21687;48.900;9.188;2023-02-23T12:17:45;98112.00;;;13.10
35582;BMP180;21687;48.900;9.188;2023-02-23T12:20:24;98119.00;;;13.30
35582;BMP180;21687;48.900;9.188;2023-02-23T12:23:17;98107.00;;;13.50
35582;BMP180;21687;48.900;9.188;2023-02-23T12:25:55;98109.00;;;13.20
35582;BMP180;21687;48.900;9.188;2023-02-23T12:31:01;98100.00;;;13.70
35582;BMP180;21687;48.900;9.188;2023-02-23T12:33:43;98099.00;;;13.90
35582;BMP180;21687;48.900;9.188;2023-02-23T12:39:02;98105.00;;;13.50
35582;BMP180;21687;48.900;9.188;2023-02-23T12:44:28;98093.00;;;13.70
35582;BMP180;21687;48.900;9.188;2023-02-23T12:47:22;98090.00;;;13.70
35582;BMP180;21687;48.900;9.188;2023-02-23T12:49:55;98095.00;;;13.70
35582;BMP180;21687;48.900;9.188;2023-02-23T12:52:44;98079.00;;;14.00
35582;BMP180;21687;48.900;9.188;2023-02-23T12:55:15;98087.00;;;14.20
35582;BMP180;21687;48.900;9.188;2023-02-23T12:58:25;98089.00;;;13.80
35582;BMP180;21687;48.900;9.188;2023-02-23T13:01:15;98085.00;;;13.80
35582;BMP180;21687;48.900;9.188;2023-02-23T13:03:56;98088.00;;;13.70
35582;BMP180;21687;48.900;9.188;2023-02-23T13:10:04;98082.00;;;13.70
35582;BMP180;21687;48.900;9.188;2023-02-23T13:12:59;98079.00;;;13.70
35582;BMP180;21687;48.900;9.188;2023-02-23T13:15:44;98082.00;;;13.60
35582;BMP180;21687;48.900;9.188;2023-02-23T13:24:50;98091.00;;;13.10
35582;BMP180;21687;48.900;9.188;2023-02-23T13:27:19;98087.00;;;13.00
35582;BMP180;21687;48.900;9.188;2023-02-23T13:29:52;98090.00;;;13.10
35582;BMP180;21687;48.900;9.188;2023-02-23T14:45:38;98071.00;;;12.40
35582;BMP180;21687;48.900;9.188;2023-02-23T14:48:23;98064.00;;;12.30
35582;BMP180;21687;48.900;9.188;2023-02-23T14:51:23;98070.00;;;12.20
35582;BMP180;21687;48.900;9.188;2023-02-23T14:54:08;98067.00;;;12.20
35582;BMP180;21687;48.900;9.188;2023-02-23T14:56:54;98058.00;;;12.10
35582;BMP180;21687;48.900;9.188;2023-02-23T15:00:23;98063.00;;;11.80
35582;BMP180;21687;48.900;9.188;2023-02-23T15:03:04;98069.00;;;11.90
35582;BMP180;21687;48.900;9.188;2023-02-23T15:06:05;98066.00;;;12.10
35582;BMP180;21687;48.900;9.188;2023-02-23T15:09:07;98072.00;;;12.10
35582;BMP180;21687;48.900;9.188;2023-02-23T15:12:17;98064.00;;;12.00
35582;BMP180;21687;48.900;9.188;2023-02-23T15:14:48;98059.00;;;12.10
35582;BMP180;21687;48.900;9.188;2023-02-23T15:17:25;98066.00;;;11.80
35582;BMP180;21687;48.900;9.188;2023-02-23T15:20:31;98071.00;;;11.90
35582;BMP180;21687;48.900;9.188;2023-02-23T15:23:18;98080.00;;;12.10
35582;BMP180;21687;48.900;9.188;2023-02-23T15:26:01;98072.00;;;12.00
35582;BMP180;21687;48.900;9.188;2023-02-23T15:28:44;98075.00;;;11.90
35582;BMP180;21687;48.900;9.188;2023-02-23T15:31:22;98069.00;;;11.90
35582;BMP180;21687;48.900;9.188;2023-02-23T15:34:09;98078.00;;;11.90
35582;BMP180;21687;48.900;9.188;2023-02-23T15:36:46;98070.00;;;11.80
35582;BMP180;21687;48.900;9.188;2023-02-23T15:39:19;98075.00;;;11.90
35582;BMP180;21687;48.900;9.188;2023-02-23T15:41:50;98075.00;;;11.80
35582;BMP180;21687;48.900;9.188;2023-02-23T15:44:29;98068.00;;;11.40
35582;BMP180;21687;48.900;9.188;2023-02-23T15:47:05;98074.00;;;11.20
35582;BMP180;21687;48.900;9.188;2023-02-23T15:49:44;98071.00;;;11.10
35582;BMP180;21687;48.900;9.188;2023-02-23T15:53:01;98069.00;;;10.80
35582;BMP180;21687;48.900;9.188;2023-02-23T15:55:41;98076.00;;;10.70
35582;BMP180;21687;48.900;9.188;2023-02-23T15:58:21;98072.00;;;10.60
35582;BMP180;21687;48.900;9.188;2023-02-23T16:01:25;98085.00;;;10.40
35582;BMP180;21687;48.900;9.188;2023-02-23T16:04:12;98082.00;;;10.40
35582;BMP180;21687;48.900;9.188;2023-02-23T16:06:51;98084.00;;;10.30
35582;BMP180;21687;48.900;9.188;2023-02-23T16:09:29;98087.00;;;10.20
35582;BMP180;21687;48.900;9.188;2023-02-23T16:12:12;98082.00;;;10.20
35582;BMP180;21687;48.900;9.188;2023-02-23T16:15:00;98084.00;;;10.10
35582;BMP180;21687;48.900;9.188;2023-02-23T16:17:55;98083.00;;;10.10
35582;BMP180;21687;48.900;9.188;2023-02-23T16:20:51;98083.00;;;10.10
35582;BMP180;21687;48.900;9.188;2023-02-23T16:23:49;98084.00;;;10.00
35582;BMP180;21687;48.900;9.188;2023-02-23T16:26:44;98082.00;;;10.00
35582;BMP180;21687;48.900;9.188;2023-02-23T16:29:32;98075.00;;;10.00
35582;BMP180;21687;48.900;9.188;2023-02-23T16:32:15;98075.00;;;10.00
35582;BMP180;21687;48.900;9.188;2023-02-23T16:34:54;98083.00;;;9.90
35582;BMP180;21687;48.900;9.188;2023-02-23T16:37:29;98073.00;;;9.90
35582;BMP180;21687;48.900;9.188;2023-02-23T16:40:16;98078.00;;;9.90
35582;BMP180;21687;48.900;9.188;2023-02-23T16:43:04;98080.00;;;9.90
35582;BMP180;21687;48.900;9.188;2023-02-23T16:45:59;98079.00;;;9.90
35582;BMP180;21687;48.900;9.188;2023-02-23T16:48:37;98074.00;;;9.90
35582;BMP180;21687;48.900;9.188;2023-02-23T16:51:19;98081.00;;;9.80
35582;BMP180;21687;48.900;9.188;2023-02-23T16:53:55;98082.00;;;9.80
35582;BMP180;21687;48.900;9.188;2023-02-23T16:56:22;98081.00;;;9.80
35582;BMP180;21687;48.900;9.188;2023-02-23T16:58:57;98086.00;;;9.70
35582;BMP180;21687;48.900;9.188;2023-02-23T17:01:35;98084.00;;;9.70
35582;BMP180;21687;48.900;9.188;2023-02-23T17:04:26;98081.00;;;9.80
35582;BMP180;21687;48.900;9.188;2023-02-23T17:06:58;98088.00;;;9.70
35582;BMP180;21687;48.900;9.188;2023-02-23T17:09:34;98080.00;;;9.70
35582;BMP180;21687;48.900;9.188;2023-02-23T17:12:18;98083.00;;;9.70
35582;BMP180;21687;48.900;9.188;2023-02-23T17:14:59;98083.00;;;9.60
35582;BMP180;21687;48.900;9.188;2023-02-23T17:17:46;98082.00;;;9.70
35582;BMP180;21687;48.900;9.188;2023-02-23T17:20:25;98087.00;;;9.60
35582;BMP180;21687;48.900;9.188;2023-02-23T17:23:03;98089.00;;;9.60